< < Back
Terminal Aerodrome Forecast


Current Version              Previous Versions:   1  2  3  4  5  6  7  8  9  

Terminal Aerodrome Forecast

565
FTUS44 KMRX 261129
TAFCHA
TAF
KCHA 261129Z 2612/2712 31011G18KT P6SM BKN025
     FM262000 32010KT P6SM BKN035
     FM270100 33005KT P6SM BKN035=

Latest METAR

682
SAUS80 KWBC 262000
MTRCHA
METAR KCHA 261953Z 30008KT 10SM BKN020 BKN025 03/M02 A2993 RMK AO2
SLP135 T00331022


USA.gov is the U.S. government's official web portal to all federal, state and local government web resources and services.